Time;durP1;ratioP1;P1;durP2;ratioP2;P2;SDS_P1;SDS_P2;PMS_P1;PMS_P2;Temp;Humidity;BMP_temperature;BMP_pressure;BME280_temperature;BME280_humidity;BME280_pressure;Samples;Min_cycle;Max_cycle;Signal;HPM_P1;HPM_P2
2023/07/25 00:00:06;;;;;;;2.40;1.13;;;;;;;14.07;82.78;100773.31;5035397;28;20083;-76
2023/07/25 00:02:32;;;;;;;4.00;1.13;;;;;;;14.04;83.00;100766.44;5034961;28;20128;-76
2023/07/25 00:04:57;;;;;;;2.60;1.27;;;;;;;14.02;83.12;100769.19;5035594;28;20033;-76
2023/07/25 00:07:23;;;;;;;1.75;1.10;;;;;;;13.99;83.20;100764.06;5034288;28;20037;-76
2023/07/25 00:09:48;;;;;;;0.95;0.85;;;;;;;13.99;83.11;100776.41;5036611;28;20319;-76
2023/07/25 00:12:13;;;;;;;3.35;1.27;;;;;;;13.95;83.03;100778.34;5035036;28;20121;-76
2023/07/25 00:14:39;;;;;;;1.08;0.82;;;;;;;13.92;83.12;100773.25;5034829;28;20039;-76
2023/07/25 00:17:04;;;;;;;2.97;1.55;;;;;;;13.90;83.35;100771.63;5034987;28;20059;-76
2023/07/25 00:19:29;;;;;;;2.13;1.30;;;;;;;13.87;83.71;100771.81;5034750;28;20044;-76
2023/07/25 00:21:55;;;;;;;1.80;1.20;;;;;;;13.84;83.53;100767.53;5034922;28;20131;-76
2023/07/25 00:24:20;;;;;;;2.55;1.40;;;;;;;13.82;83.95;100766.78;5034928;28;20107;-76
2023/07/25 00:26:46;;;;;;;2.40;1.02;;;;;;;13.80;83.95;100763.38;5034915;28;20037;-76
2023/07/25 00:29:11;;;;;;;2.92;1.30;;;;;;;13.77;83.78;100756.53;5034991;28;20083;-76
2023/07/25 00:31:36;;;;;;;2.60;1.25;;;;;;;13.75;84.37;100753.13;5034414;28;20049;-76
2023/07/25 00:34:03;;;;;;;2.67;1.10;;;;;;;13.73;84.22;100754.13;5035074;28;20037;-76
2023/07/25 00:36:29;;;;;;;2.60;1.02;;;;;;;13.69;84.52;100742.94;5017078;28;20037;-76
2023/07/25 00:38:54;;;;;;;2.95;1.20;;;;;;;13.69;84.40;100747.34;5035257;28;20075;-76
2023/07/25 00:41:20;;;;;;;2.47;0.95;;;;;;;13.66;84.74;100743.13;5051536;28;20033;-76
2023/07/25 00:43:45;;;;;;;2.75;1.27;;;;;;;13.65;84.78;100748.47;5034942;28;20241;-76
2023/07/25 00:46:11;;;;;;;2.90;1.23;;;;;;;13.63;84.85;100746.75;5035051;28;20036;-76
2023/07/25 00:48:36;;;;;;;1.67;1.13;;;;;;;13.61;84.46;100739.88;5034241;28;20048;-76
2023/07/25 00:51:03;;;;;;;6.75;1.20;;;;;;;13.59;84.66;100742.59;5034968;28;20056;-76
2023/07/25 00:53:29;;;;;;;1.33;1.02;;;;;;;13.56;84.54;100750.66;5034000;28;20259;-76
2023/07/25 00:55:55;;;;;;;1.48;1.10;;;;;;;13.54;84.40;100754.31;5034651;28;20033;-76
2023/07/25 00:58:21;;;;;;;3.78;1.60;;;;;;;13.53;84.43;100756.06;5034306;28;20277;-76
2023/07/25 01:06:42;;;;;;;2.75;1.17;;;;;;;13.44;84.94;100748.69;5018735;28;20104;-85
2023/07/25 01:09:07;;;;;;;1.40;1.30;;;;;;;13.41;85.03;100744.44;5019194;28;20233;-85
2023/07/25 01:11:33;;;;;;;1.42;1.05;;;;;;;13.39;85.47;100738.41;5018960;28;20097;-85
2023/07/25 01:13:58;;;;;;;1.98;1.10;;;;;;;13.37;85.16;100742.91;5001404;28;20284;-86
2023/07/25 01:16:25;;;;;;;1.33;1.13;;;;;;;13.36;85.13;100749.09;5000902;28;20108;-85
2023/07/25 01:18:52;;;;;;;1.52;1.40;;;;;;;13.35;85.13;100746.53;4982041;28;20352;-85
2023/07/25 01:21:19;;;;;;;2.05;1.20;;;;;;;13.33;85.34;100737.88;4981339;28;20042;-85
2023/07/25 01:23:45;;;;;;;1.13;1.02;;;;;;;13.31;85.58;100737.13;5018266;28;20072;-85
2023/07/25 01:26:10;;;;;;;1.42;1.33;;;;;;;13.30;85.87;100740.63;5033676;28;20104;-85
2023/07/25 01:28:39;;;;;;;1.48;0.95;;;;;;;13.27;85.81;100733.78;5018554;28;20040;-85
2023/07/25 01:31:04;;;;;;;0.90;0.90;;;;;;;13.27;85.90;100731.16;5018961;28;20034;-86
2023/07/25 01:33:30;;;;;;;3.15;1.30;;;;;;;13.25;86.02;100736.47;5018014;28;20034;-85
2023/07/25 01:35:55;;;;;;;2.10;1.48;;;;;;;13.24;85.71;100734.81;4999769;28;20038;-86
2023/07/25 01:38:21;;;;;;;2.80;0.88;;;;;;;13.24;85.98;100741.81;4998832;28;20068;-85
2023/07/25 01:40:46;;;;;;;2.85;1.13;;;;;;;13.21;85.92;100737.59;5013157;28;20363;-85
2023/07/25 01:43:12;;;;;;;3.40;1.40;;;;;;;13.20;85.80;100730.63;5018657;28;20042;-85
2023/07/25 01:45:37;;;;;;;1.88;1.30;;;;;;;13.19;86.18;100738.63;5018391;28;20125;-85
2023/07/25 01:48:02;;;;;;;2.50;1.38;;;;;;;13.17;86.20;100736.06;5006821;28;20046;-85
2023/07/25 01:50:29;;;;;;;3.25;1.40;;;;;;;13.15;86.09;100732.66;4998773;28;20120;-86
2023/07/25 01:52:55;;;;;;;1.55;1.30;;;;;;;13.14;86.50;100730.13;4981359;28;20030;-85
2023/07/25 01:55:20;;;;;;;3.28;1.60;;;;;;;13.13;86.42;100737.13;5013187;28;20544;-85
2023/07/25 01:57:46;;;;;;;3.58;1.50;;;;;;;13.12;86.78;100721.47;4980912;28;20083;-85
2023/07/25 02:00:12;;;;;;;1.08;0.98;;;;;;;13.11;86.62;100731.09;4998446;28;20034;-85
2023/07/25 02:02:37;;;;;;;2.33;1.50;;;;;;;13.11;86.41;100735.53;4998501;28;20091;-85
2023/07/25 02:05:03;;;;;;;0.80;0.73;;;;;;;13.11;86.75;100733.75;5005169;28;20045;-85
2023/07/25 02:07:28;;;;;;;1.98;0.95;;;;;;;13.09;86.35;100722.47;5023508;28;20045;-85
2023/07/25 02:09:53;;;;;;;1.98;1.20;;;;;;;13.08;86.64;100720.78;5026838;28;20036;-85
2023/07/25 02:12:19;;;;;;;1.52;1.33;;;;;;;13.06;86.59;100720.84;5039088;28;20036;-85
2023/07/25 02:14:44;;;;;;;2.28;0.93;;;;;;;13.05;87.06;100724.41;5057598;28;20217;-85
2023/07/25 02:17:10;;;;;;;2.38;1.00;;;;;;;13.04;86.82;100724.47;5056799;28;20056;-85
2023/07/25 02:19:35;;;;;;;2.72;1.30;;;;;;;13.03;86.76;100726.25;5067157;28;20048;-85
2023/07/25 02:22:00;;;;;;;3.97;1.35;;;;;;;13.03;87.06;100726.25;5074867;28;20028;-85
2023/07/25 02:24:26;;;;;;;4.95;1.42;;;;;;;13.02;87.18;100721.97;5070131;28;20119;-85
2023/07/25 02:26:51;;;;;;;1.73;0.95;;;;;;;13.02;87.21;100723.72;5077531;28;20028;-85
2023/07/25 02:29:17;;;;;;;2.58;1.17;;;;;;;13.02;87.28;100726.34;5039085;28;20056;-86
2023/07/25 02:31:42;;;;;;;2.80;1.08;;;;;;;13.02;87.49;100721.09;5057478;28;20048;-85
2023/07/25 02:34:07;;;;;;;2.22;1.30;;;;;;;13.04;87.55;100727.09;5042970;28;20060;-85
2023/07/25 02:36:33;;;;;;;5.32;1.30;;;;;;;13.03;87.80;100722.78;5041129;28;20045;-86
2023/07/25 02:38:58;;;;;;;2.95;1.08;;;;;;;13.02;87.76;100714.06;5054453;28;20355;-85
2023/07/25 02:41:24;;;;;;;1.25;0.60;;;;;;;13.04;87.63;100716.59;5056391;28;20309;-85
2023/07/25 02:43:49;;;;;;;1.77;0.90;;;;;;;13.03;87.87;100718.38;5039143;28;20037;-85
2023/07/25 02:46:14;;;;;;;3.20;1.30;;;;;;;13.03;87.83;100723.63;5057021;28;20332;-86
2023/07/25 02:48:40;;;;;;;3.42;1.10;;;;;;;13.03;87.92;100723.63;5056720;28;20048;-85
2023/07/25 02:51:05;;;;;;;2.53;1.02;;;;;;;13.04;88.36;100725.34;5057016;28;20041;-85
2023/07/25 02:53:30;;;;;;;1.80;0.90;;;;;;;13.04;88.27;100730.59;5056247;28;20037;-88
2023/07/25 02:55:56;;;;;;;3.58;1.20;;;;;;;13.05;88.39;100723.56;5038546;28;20028;-88
2023/07/25 02:58:21;;;;;;;2.75;1.13;;;;;;;13.05;88.83;100721.78;5037893;28;20078;-88
2023/07/25 03:00:48;;;;;;;5.22;1.23;;;;;;;13.05;89.03;100721.78;5039005;28;20029;-88
2023/07/25 03:03:13;;;;;;;2.58;1.30;;;;;;;13.06;88.95;100722.59;5038439;28;20044;-88
2023/07/25 03:05:39;;;;;;;2.85;1.20;;;;;;;13.06;88.96;100727.88;5039331;28;20049;-88
2023/07/25 03:08:05;;;;;;;1.20;1.00;;;;;;;13.06;89.11;100726.13;5044285;28;20040;-88
2023/07/25 03:10:31;;;;;;;3.30;1.40;;;;;;;13.07;89.08;100721.69;5055485;28;20033;-88
2023/07/25 03:12:56;;;;;;;4.25;1.42;;;;;;;13.09;89.54;100726.88;5038365;28;20248;-88
2023/07/25 03:15:22;;;;;;;4.40;2.00;;;;;;;13.10;89.48;100718.03;5038142;28;20032;-88
2023/07/25 03:17:47;;;;;;;2.50;1.30;;;;;;;13.12;89.94;100724.94;5056222;28;20323;-88
2023/07/25 03:20:12;;;;;;;1.10;0.90;;;;;;;13.12;89.89;100717.03;5038355;28;20062;-88
2023/07/25 03:22:38;;;;;;;3.88;1.35;;;;;;;13.15;nan;100716.88;5038032;28;20259;-88
2023/07/25 03:25:03;;;;;;;2.38;1.02;;;;;;;13.15;89.78;100716.88;5056203;28;20339;-88
2023/07/25 03:27:29;;;;;;;1.75;1.38;;;;;;;13.17;89.93;100716.78;5054690;28;20130;-88
2023/07/25 03:29:54;;;;;;;1.17;1.00;;;;;;;13.18;90.09;100715.88;5056408;28;20036;-88
2023/07/25 03:32:19;;;;;;;3.05;1.65;;;;;;;13.20;89.93;100724.53;5055408;28;20040;-88
2023/07/25 03:34:45;;;;;;;2.58;1.25;;;;;;;13.20;89.90;100730.63;5046541;28;20053;-88
2023/07/25 03:37:10;;;;;;;2.40;1.10;;;;;;;13.21;90.08;100719.19;5036124;28;20056;-88
2023/07/25 03:39:36;;;;;;;1.60;0.65;;;;;;;13.22;89.81;100715.63;5054239;28;20048;-88
2023/07/25 03:42:02;;;;;;;2.55;1.15;;;;;;;13.23;89.73;100714.69;5038373;28;20224;-88
2023/07/25 03:44:28;;;;;;;3.28;1.35;;;;;;;13.24;89.90;100721.66;5055119;28;20134;-88
2023/07/25 03:46:53;;;;;;;2.28;1.35;;;;;;;13.25;90.01;100723.34;5055953;28;20445;-88
2023/07/25 03:49:19;;;;;;;3.00;1.17;;;;;;;13.27;90.40;100717.16;5037310;28;20057;-87
2023/07/25 03:51:44;;;;;;;1.35;0.80;;;;;;;13.28;90.53;100721.47;5038021;28;20078;-88
2023/07/25 03:54:09;;;;;;;1.67;0.80;;;;;;;13.29;90.57;100723.19;5055501;28;20132;-88
2023/07/25 03:56:35;;;;;;;1.02;0.90;;;;;;;13.31;90.41;100729.25;5055617;28;20231;-88
2023/07/25 03:59:00;;;;;;;1.63;1.13;;;;;;;13.32;90.40;100723.06;5055842;28;20331;-87
2023/07/25 04:01:26;;;;;;;2.15;0.80;;;;;;;13.33;90.33;100730.00;5055416;28;20040;-88
2023/07/25 04:03:52;;;;;;;1.77;0.90;;;;;;;13.34;90.62;100727.28;5055185;28;20032;-88
2023/07/25 04:06:18;;;;;;;1.58;0.80;;;;;;;13.35;90.83;100730.75;5055229;28;20371;-88
2023/07/25 04:08:43;;;;;;;2.13;0.93;;;;;;;13.37;90.71;100726.25;5055233;28;20336;-88
2023/07/25 04:11:09;;;;;;;2.40;1.38;;;;;;;13.38;91.07;100727.97;5037387;28;20080;-88
2023/07/25 04:13:34;;;;;;;2.25;1.10;;;;;;;13.39;91.10;100724.44;5034947;28;20391;-88
2023/07/25 04:16:00;;;;;;;3.17;0.80;;;;;;;13.40;91.24;100732.22;5035464;28;20049;-88
2023/07/25 04:18:25;;;;;;;1.45;0.90;;;;;;;13.41;91.31;100733.91;5017152;28;20312;-88
2023/07/25 04:20:50;;;;;;;0.82;0.68;;;;;;;13.41;91.14;100728.66;5017562;28;20347;-88
2023/07/25 04:23:16;;;;;;;2.97;1.45;;;;;;;13.43;91.33;100725.94;5035383;28;20068;-88
2023/07/25 04:25:42;;;;;;;3.15;0.98;;;;;;;13.46;91.26;100733.66;5035269;28;20101;-88
2023/07/25 04:28:07;;;;;;;3.17;1.08;;;;;;;13.46;91.38;100723.13;5038185;28;20043;-88
2023/07/25 04:30:33;;;;;;;4.00;1.13;;;;;;;13.48;91.00;100729.19;5036605;28;20039;-88
2023/07/25 04:32:58;;;;;;;3.53;1.35;;;;;;;13.48;91.28;100734.44;5055086;28;20065;-88
2023/07/25 04:35:24;;;;;;;1.70;1.05;;;;;;;13.51;91.10;100730.78;5039691;28;20036;-87
2023/07/25 04:37:49;;;;;;;3.22;1.20;;;;;;;13.52;91.40;100733.34;5035739;28;20085;-88
2023/07/25 04:40:15;;;;;;;2.00;1.10;;;;;;;13.53;91.08;100735.03;5044569;28;20045;-88
2023/07/25 04:42:40;;;;;;;3.35;1.17;;;;;;;13.54;91.19;100742.00;5034626;28;20033;-87
2023/07/25 04:45:06;;;;;;;2.95;1.20;;;;;;;13.56;91.33;100742.75;5017232;28;20037;-88
2023/07/25 04:47:31;;;;;;;2.97;1.20;;;;;;;13.57;91.42;100744.47;5034385;28;20116;-88
2023/07/25 04:49:57;;;;;;;4.10;1.23;;;;;;;13.59;91.28;100747.84;5035100;28;20037;-88
2023/07/25 04:52:22;;;;;;;3.72;1.40;;;;;;;13.59;91.97;100744.38;5034267;28;20232;-88
2023/07/25 04:54:47;;;;;;;9.90;1.83;;;;;;;13.62;91.82;100746.84;5034709;28;20045;-88
2023/07/25 04:57:13;;;;;;;2.80;1.17;;;;;;;13.63;92.02;100738.00;5034624;28;20056;-88
2023/07/25 04:59:38;;;;;;;5.50;1.30;;;;;;;13.64;92.16;100744.97;5016655;28;20108;-88
2023/07/25 05:02:04;;;;;;;3.25;1.30;;;;;;;13.66;92.10;100748.38;5034920;28;20029;-88
2023/07/25 05:04:29;;;;;;;2.17;1.10;;;;;;;13.67;91.83;100741.31;5041536;28;20324;-88
2023/07/25 05:06:54;;;;;;;1.73;0.90;;;;;;;13.68;91.89;100745.63;5054868;28;20017;-88
2023/07/25 05:09:20;;;;;;;6.57;2.13;;;;;;;13.69;91.93;100748.19;5033368;28;20036;-88
2023/07/25 05:11:51;;;;;;;1.15;0.98;;;;;;;13.70;91.87;100751.66;5017174;28;20056;-88
2023/07/25 05:14:17;;;;;;;4.90;1.13;;;;;;;13.71;91.36;100754.22;5034863;28;20220;-88
2023/07/25 05:16:42;;;;;;;2.10;1.00;;;;;;;13.72;91.36;100758.56;5035124;28;20041;-88
2023/07/25 05:19:08;;;;;;;5.07;1.65;;;;;;;13.74;91.47;100758.47;5035150;28;20567;-88
2023/07/25 05:21:33;;;;;;;4.28;1.02;;;;;;;13.74;91.15;100761.09;5034162;28;20025;-88
2023/07/25 05:23:59;;;;;;;5.70;1.50;;;;;;;13.74;90.58;100755.84;5034816;28;20080;-88
2023/07/25 05:26:24;;;;;;;6.10;1.50;;;;;;;13.76;90.71;100759.25;5034031;28;20041;-88
2023/07/25 05:28:49;;;;;;;1.00;0.80;;;;;;;13.76;90.50;100756.59;5016798;28;20049;-88
2023/07/25 05:31:15;;;;;;;2.30;0.90;;;;;;;13.77;90.44;100755.66;5016797;28;20021;-88
2023/07/25 05:33:40;;;;;;;3.60;1.10;;;;;;;13.78;89.88;100760.84;5017264;28;20027;-88
2023/07/25 05:36:05;;;;;;;5.53;1.05;;;;;;;13.79;89.55;100753.81;5054527;28;20033;-88
2023/07/25 05:38:31;;;;;;;4.25;0.98;;;;;;;13.79;89.19;100748.56;5035835;28;20013;-88
2023/07/25 05:40:56;;;;;;;5.65;1.55;;;;;;;13.81;88.97;100758.03;5038365;28;20037;-88
2023/07/25 05:43:22;;;;;;;5.82;1.27;;;;;;;13.81;88.40;100751.94;5034068;28;20083;-88
2023/07/25 05:45:48;;;;;;;5.07;1.38;;;;;;;13.81;88.02;100762.47;5034658;28;20033;-88
2023/07/25 05:48:13;;;;;;;2.80;1.20;;;;;;;13.81;88.36;100758.03;5034361;28;20041;-88
2023/07/25 05:50:38;;;;;;;4.07;1.10;;;;;;;13.83;88.18;100760.59;5035161;28;20139;-88
2023/07/25 05:53:04;;;;;;;3.35;1.10;;;;;;;13.83;88.14;100763.22;5037835;28;20028;-88
2023/07/25 05:55:29;;;;;;;4.35;0.90;;;;;;;13.84;87.99;100767.53;5019805;28;20052;-88
2023/07/25 05:57:55;;;;;;;3.42;1.17;;;;;;;13.83;88.16;100761.44;5037802;28;20037;-88
2023/07/25 06:00:20;;;;;;;6.22;1.60;;;;;;;13.85;87.66;100765.78;5037485;28;20095;-88
2023/07/25 06:02:46;;;;;;;3.47;1.30;;;;;;;13.85;87.46;100760.53;5037867;28;20388;-88
2023/07/25 06:05:11;;;;;;;3.65;1.00;;;;;;;13.85;87.25;100761.34;5051113;28;20359;-88
2023/07/25 06:07:36;;;;;;;2.08;0.88;;;;;;;13.87;87.48;100764.75;5057222;28;20033;-88
2023/07/25 06:10:02;;;;;;;1.98;0.80;;;;;;;13.88;87.44;100769.09;5030986;28;20136;-88
2023/07/25 06:12:29;;;;;;;1.90;0.85;;;;;;;13.90;87.40;100763.72;5037202;28;20164;-88
2023/07/25 06:14:54;;;;;;;5.30;1.15;;;;;;;13.89;86.41;100757.63;5049801;28;20197;-88
2023/07/25 06:17:19;;;;;;;4.75;1.27;;;;;;;13.90;86.88;100764.59;5057074;28;20096;-88
2023/07/25 06:19:45;;;;;;;2.85;1.17;;;;;;;13.91;86.64;100766.28;5057185;28;20243;-88
2023/07/25 06:22:10;;;;;;;3.72;1.13;;;;;;;13.93;86.92;100767.03;5039358;28;20040;-88
2023/07/25 06:24:36;;;;;;;2.72;0.95;;;;;;;13.94;86.95;100762.63;5038778;28;20067;-88
2023/07/25 06:27:01;;;;;;;2.25;1.00;;;;;;;13.97;87.00;100767.72;5057321;28;20044;-88
2023/07/25 06:29:26;;;;;;;3.80;1.17;;;;;;;13.97;87.05;100771.22;5056375;28;20228;-88
2023/07/25 06:31:52;;;;;;;2.80;0.80;;;;;;;13.99;87.01;100766.72;5057403;28;20033;-88
2023/07/25 06:34:17;;;;;;;2.97;1.17;;;;;;;14.01;86.77;100764.00;5050750;28;20055;-88
2023/07/25 06:36:43;;;;;;;2.58;0.80;;;;;;;14.02;87.16;100769.19;5036731;28;20450;-88
2023/07/25 06:39:08;;;;;;;8.23;1.02;;;;;;;14.05;87.00;100769.94;5037204;28;20037;-88
2023/07/25 06:41:35;;;;;;;3.17;0.90;;;;;;;14.05;86.01;100770.78;5036483;28;20037;-88
2023/07/25 06:44:00;;;;;;;5.00;1.23;;;;;;;14.07;85.71;100765.44;5019409;28;20060;-88
2023/07/25 06:46:25;;;;;;;6.03;1.20;;;;;;;14.09;85.15;100764.38;5018762;28;20412;-88
2023/07/25 06:48:52;;;;;;;3.45;1.25;;;;;;;14.11;84.84;100765.16;5036960;28;20355;-88
2023/07/25 06:51:19;;;;;;;5.38;0.93;;;;;;;14.13;84.77;100770.34;5018505;28;20176;-88
2023/07/25 06:53:45;;;;;;;7.22;1.10;;;;;;;14.15;84.67;100765.81;5037211;28;20260;-88
2023/07/25 06:56:10;;;;;;;5.95;0.75;;;;;;;14.15;83.55;100765.81;5019060;28;20033;-88
2023/07/25 06:58:35;;;;;;;3.83;0.90;;;;;;;14.16;82.95;100775.44;5036165;28;20559;-88
2023/07/25 07:01:01;;;;;;;8.23;1.42;;;;;;;14.16;82.46;100778.06;5037051;28;20029;-88
2023/07/25 07:03:26;;;;;;;3.08;1.20;;;;;;;14.16;80.86;100770.16;5035130;28;20312;-88
2023/07/25 07:05:55;;;;;;;9.77;1.10;;;;;;;14.17;81.22;100777.13;5052110;28;20049;-88
2023/07/25 07:08:23;;;;;;;3.92;1.05;;;;;;;14.16;79.97;100784.19;5053660;28;20223;-88
2023/07/25 07:10:53;;;;;;;3.58;1.05;;;;;;;14.16;80.17;100781.53;5059190;28;20045;-88
2023/07/25 07:13:19;;;;;;;2.00;0.82;;;;;;;14.18;80.36;100784.94;5071450;28;20078;-88
2023/07/25 07:15:48;;;;;;;5.97;1.25;;;;;;;14.20;80.68;100780.44;5056326;28;20039;-88
2023/07/25 07:18:13;;;;;;;6.90;1.17;;;;;;;14.24;80.99;100785.53;5056503;28;20043;-88
2023/07/25 07:20:39;;;;;;;4.68;1.60;;;;;;;14.24;80.92;100785.53;5037581;28;20104;-88
2023/07/25 07:23:05;;;;;;;4.30;0.95;;;;;;;14.25;81.07;100776.72;5048905;28;20028;-87
2023/07/25 07:25:30;;;;;;;1.83;0.70;;;;;;;14.28;81.52;100776.50;5053990;28;20064;-86
2023/07/25 07:27:55;;;;;;;3.63;0.90;;;;;;;14.29;81.75;100776.44;5042480;28;20263;-87
2023/07/25 07:30:21;;;;;;;2.85;0.70;;;;;;;14.32;82.08;100772.78;5055573;28;20405;-88
2023/07/25 07:32:47;;;;;;;4.20;0.90;;;;;;;14.33;82.03;100769.19;5038435;28;20271;-88
2023/07/25 07:35:12;;;;;;;2.15;0.85;;;;;;;14.36;82.08;100776.94;5056107;28;20100;-88
2023/07/25 07:37:37;;;;;;;4.85;0.98;;;;;;;14.38;81.31;100783.81;5052424;28;20060;-88
2023/07/25 07:40:03;;;;;;;1.75;0.90;;;;;;;14.40;80.60;100779.28;5052665;28;20398;-88
2023/07/25 07:42:29;;;;;;;6.95;1.10;;;;;;;14.41;80.47;100782.78;5055519;28;20029;-88
2023/07/25 07:44:54;;;;;;;2.80;0.80;;;;;;;14.43;80.81;100785.34;5037810;28;20028;-88
2023/07/25 07:47:20;;;;;;;5.63;0.90;;;;;;;14.44;80.63;100784.38;5055104;28;20044;-88
2023/07/25 07:49:45;;;;;;;6.70;0.90;;;;;;;14.46;80.59;100790.41;5053984;28;20355;-88
2023/07/25 07:52:11;;;;;;;1.75;0.80;;;;;;;14.47;80.69;100786.84;5054355;28;20132;-88
2023/07/25 07:54:36;;;;;;;4.55;0.60;;;;;;;14.50;79.42;100795.44;5048992;28;20029;-88
2023/07/25 07:57:01;;;;;;;4.13;1.00;;;;;;;14.54;79.42;100789.03;5045472;28;20063;-88
2023/07/25 07:59:27;;;;;;;4.10;0.70;;;;;;;14.57;79.94;100788.91;5046110;28;20048;-88
2023/07/25 08:01:52;;;;;;;1.85;0.70;;;;;;;14.59;79.74;100796.72;5036987;28;20033;-88
2023/07/25 08:04:17;;;;;;;1.25;0.73;;;;;;;14.58;79.29;100785.31;5052859;28;20221;-88
2023/07/25 08:06:43;;;;;;;3.05;0.60;;;;;;;14.58;78.00;100793.22;5050629;28;20031;-88
2023/07/25 08:09:08;;;;;;;1.30;0.70;;;;;;;14.59;78.11;100804.63;5055069;28;20037;-88
2023/07/25 08:11:34;;;;;;;1.95;1.00;;;;;;;14.60;78.75;100801.03;5054150;28;20059;-88
2023/07/25 08:13:59;;;;;;;2.65;0.63;;;;;;;14.62;78.85;100803.59;5054393;28;20024;-88
2023/07/25 08:16:24;;;;;;;4.57;0.63;;;;;;;14.63;77.93;100802.66;5054587;28;20041;-88
2023/07/25 08:18:50;;;;;;;2.85;0.80;;;;;;;14.65;77.58;100795.53;5037088;28;20032;-88
2023/07/25 08:21:15;;;;;;;0.50;0.50;;;;;;;14.69;77.91;100802.31;5020641;28;20100;-88
2023/07/25 08:23:41;;;;;;;4.25;0.55;;;;;;;14.71;78.46;100811.81;5034391;28;20092;-88
2023/07/25 08:26:06;;;;;;;2.28;0.65;;;;;;;14.74;77.38;100811.63;5049576;28;20063;-88
2023/07/25 08:28:31;;;;;;;2.83;1.13;;;;;;;14.74;76.52;100814.28;5054317;28;20232;-88
2023/07/25 08:30:59;;;;;;;3.83;0.65;;;;;;;14.75;76.34;100813.34;5041468;28;20112;-88
2023/07/25 08:33:25;;;;;;;3.40;0.67;;;;;;;14.75;76.86;100813.34;5034384;28;20252;-88
2023/07/25 08:35:52;;;;;;;2.53;0.73;;;;;;;14.77;76.99;100811.47;5035444;28;20036;-88
2023/07/25 08:38:18;;;;;;;4.60;0.70;;;;;;;14.80;77.37;100814.84;5036245;28;20025;-88
2023/07/25 08:40:46;;;;;;;3.15;0.50;;;;;;;14.82;76.78;100816.44;5054827;28;20107;-88
2023/07/25 08:43:13;;;;;;;3.90;0.70;;;;;;;14.83;75.38;100826.06;5036797;28;20351;-88
2023/07/25 08:45:41;;;;;;;1.70;0.50;;;;;;;14.86;75.73;100827.66;5054143;28;20387;-88
2023/07/25 08:48:11;;;;;;;3.60;0.68;;;;;;;14.86;75.90;100831.16;5054893;28;20032;-88
2023/07/25 08:50:37;;;;;;;2.25;0.65;;;;;;;14.87;75.83;100835.50;5044412;28;20037;-88
2023/07/25 08:53:08;;;;;;;2.33;0.85;;;;;;;14.89;75.29;100833.59;5034707;28;20040;-88
2023/07/25 08:55:33;;;;;;;3.15;0.47;;;;;;;14.91;74.48;100831.72;5042789;28;20053;-88
2023/07/25 08:57:59;;;;;;;1.00;0.55;;;;;;;14.94;75.19;100839.47;5054673;28;20075;-88
2023/07/25 09:00:25;;;;;;;0.60;0.43;;;;;;;14.97;75.95;100833.16;5047172;28;20072;-88
2023/07/25 09:02:51;;;;;;;7.05;0.60;;;;;;;15.00;75.51;100840.88;5054449;28;20041;-88
2023/07/25 09:05:17;;;;;;;3.67;1.30;;;;;;;15.02;74.67;100839.00;5054069;28;20049;-88
2023/07/25 09:07:43;;;;;;;4.10;0.90;;;;;;;15.05;75.36;100853.81;5036890;28;20043;-88
2023/07/25 09:10:10;;;;;;;3.05;0.60;;;;;;;15.05;75.26;100851.19;5036324;28;20025;-88
2023/07/25 09:12:35;;;;;;;2.60;0.55;;;;;;;15.07;75.54;100859.84;5064743;28;20099;-88
2023/07/25 09:15:02;;;;;;;3.30;0.50;;;;;;;15.06;75.79;100861.63;5067534;28;20061;-88
2023/07/25 09:17:29;;;;;;;1.55;0.63;;;;;;;15.05;75.90;100867.84;5053769;28;20101;-88
2023/07/25 09:19:55;;;;;;;3.25;0.80;;;;;;;15.06;75.72;100863.41;5053671;28;20044;-88
2023/07/25 09:22:28;;;;;;;3.17;0.63;;;;;;;15.05;75.07;100859.94;5053671;28;20213;-88
2023/07/25 09:24:53;;;;;;;1.75;0.63;;;;;;;15.05;75.08;100854.66;5036161;28;20017;-88
2023/07/25 09:27:18;;;;;;;3.30;0.68;;;;;;;15.07;75.54;100858.03;5057162;28;20100;-88
2023/07/25 09:29:45;;;;;;;2.20;0.40;;;;;;;15.11;75.75;100870.09;5057912;28;20252;-88
2023/07/25 09:32:25;;;;;;;1.80;0.70;;;;;;;15.15;75.17;100874.28;5057754;28;20047;-88
2023/07/25 09:35:01;;;;;;;1.98;0.50;;;;;;;15.16;74.50;100872.47;5057468;28;20032;-88
2023/07/25 09:37:28;;;;;;;1.92;0.47;;;;;;;15.18;75.04;100883.78;5038391;28;20048;-88
2023/07/25 09:39:53;;;;;;;1.95;0.60;;;;;;;15.19;75.24;100877.59;5027304;28;20327;-88
2023/07/25 09:42:24;;;;;;;3.97;0.60;;;;;;;15.19;74.25;100880.22;5056766;28;20045;-88
2023/07/25 09:44:53;;;;;;;1.48;0.50;;;;;;;15.21;73.44;100885.38;5038758;28;20155;-88
2023/07/25 09:47:26;;;;;;;2.83;0.55;;;;;;;15.23;73.38;100888.81;5036309;28;20350;-88
2023/07/25 09:49:53;;;;;;;1.45;0.65;;;;;;;15.25;71.79;100887.75;5038145;28;20033;-88
2023/07/25 09:52:18;;;;;;;0.88;0.40;;;;;;;15.31;72.63;100895.31;5019359;28;20037;-88
2023/07/25 09:54:44;;;;;;;1.95;0.82;;;;;;;15.33;71.50;100888.16;5038064;28;20366;-88
2023/07/25 09:57:10;;;;;;;5.00;0.52;;;;;;;15.35;72.26;100898.59;5056815;28;20311;-88
2023/07/25 09:59:36;;;;;;;3.90;0.82;;;;;;;15.38;72.80;100900.22;5057225;28;20269;-88
2023/07/25 10:02:03;;;;;;;0.98;0.60;;;;;;;15.38;72.66;100900.22;5057449;28;20217;-88
2023/07/25 10:04:29;;;;;;;2.92;0.75;;;;;;;15.38;73.95;100906.34;5056906;28;20408;-88
2023/07/25 10:06:58;;;;;;;1.40;0.57;;;;;;;15.40;73.94;100901.81;5032234;28;20057;-88
2023/07/25 10:09:25;;;;;;;2.25;0.60;;;;;;;15.41;73.99;100907.94;5074123;28;20109;-88
2023/07/25 10:11:52;;;;;;;3.17;0.80;;;;;;;15.41;72.62;100915.84;5057487;28;20037;-88
2023/07/25 10:14:18;;;;;;;2.17;0.65;;;;;;;15.40;72.41;100912.38;5057442;28;20269;-88
2023/07/25 10:16:43;;;;;;;6.15;0.85;;;;;;;15.41;72.74;100911.44;5057548;28;20047;-88
2023/07/25 10:19:09;;;;;;;2.70;0.60;;;;;;;15.43;72.08;100912.19;5057504;28;20033;-88
2023/07/25 10:21:52;;;;;;;1.45;0.45;;;;;;;15.44;71.75;100911.25;5056692;28;20037;-88
2023/07/25 10:24:19;;;;;;;3.47;0.95;;;;;;;15.43;72.06;100904.28;5056967;28;20032;-88
2023/07/25 10:26:55;;;;;;;2.00;0.80;;;;;;;15.47;72.61;100907.59;5057068;28;20032;-88
2023/07/25 10:29:39;;;;;;;1.48;0.60;;;;;;;15.49;73.21;100909.19;5055709;28;20297;-88
2023/07/25 10:32:05;;;;;;;2.35;0.60;;;;;;;15.52;72.72;100903.72;5038985;28;20040;-88
2023/07/25 10:35:00;;;;;;;0.68;0.60;;;;;;;15.55;73.30;100903.56;5056972;28;20056;-88
2023/07/25 10:37:35;;;;;;;4.95;0.50;;;;;;;15.61;73.54;100910.25;5054098;28;20080;-88
2023/07/25 10:40:11;;;;;;;4.90;0.68;;;;;;;15.67;72.60;100909.03;5056920;28;20087;-88
2023/07/25 10:42:45;;;;;;;3.80;0.60;;;;;;;15.72;72.76;100912.25;5056731;28;20033;-88
2023/07/25 10:45:26;;;;;;;2.00;0.55;;;;;;;15.79;73.06;100907.44;5039399;28;20025;-88
2023/07/25 10:47:51;;;;;;;1.45;0.60;;;;;;;15.81;72.15;100916.13;5057056;28;20308;-88
2023/07/25 10:50:19;;;;;;;1.92;0.45;;;;;;;15.83;71.52;100914.25;5038412;28;20274;-88
2023/07/25 10:52:45;;;;;;;0.87;0.43;;;;;;;15.85;71.46;100912.38;5039054;28;20044;-88
2023/07/25 10:55:11;;;;;;;1.77;0.47;;;;;;;15.87;71.62;100919.25;5057198;28;20063;-88
2023/07/25 10:57:37;;;;;;;1.77;0.68;;;;;;;15.88;70.15;100902.47;5036820;28;20252;-88
2023/07/25 11:00:10;;;;;;;3.45;1.10;;;;;;;15.95;70.62;100912.63;5042609;28;20060;-88
2023/07/25 11:02:43;;;;;;;1.27;0.43;;;;;;;15.99;70.90;100919.41;5038110;28;20103;-88
2023/07/25 11:05:12;;;;;;;2.83;0.40;;;;;;;16.01;69.52;100921.03;5056590;28;20351;-88
2023/07/25 11:07:38;;;;;;;2.47;0.50;;;;;;;16.04;69.62;100918.19;5055996;28;20367;-88
2023/07/25 11:10:04;;;;;;;2.53;0.45;;;;;;;16.06;70.44;100924.25;5056176;28;20037;-88
2023/07/25 11:12:30;;;;;;;1.15;0.30;;;;;;;16.10;70.55;100930.19;5055458;28;20223;-88
2023/07/25 11:14:55;;;;;;;3.05;0.50;;;;;;;16.12;70.98;100920.38;5056421;28;20028;-88
2023/07/25 11:17:27;;;;;;;0.75;0.40;;;;;;;16.14;70.20;100928.19;5037698;28;20079;-88
2023/07/25 11:19:52;;;;;;;3.58;0.60;;;;;;;16.14;70.57;100921.13;5038057;28;20476;-88
2023/07/25 11:22:18;;;;;;;2.88;0.43;;;;;;;16.14;70.16;100936.97;5055580;28;20047;-88
2023/07/25 11:24:46;;;;;;;1.65;0.50;;;;;;;16.12;70.08;100929.13;5055989;28;20040;-88